Time;durP1;ratioP1;P1;durP2;ratioP2;P2;SDS_P1;SDS_P2;PMS_P1;PMS_P2;Temp;Humidity;BMP_temperature;BMP_pressure;BME280_temperature;BME280_humidity;BME280_pressure;Samples;Min_cycle;Max_cycle;Signal;HPM_P1;HPM_P2
2023/09/23 00:01:15;;;;;;;6.10;5.50;;;13.50;99.90;;;;;;5093279;28;20556;-63
2023/09/23 00:03:41;;;;;;;9.20;5.60;;;13.50;99.90;;;;;;5093529;28;20414;-64
2023/09/23 00:06:08;;;;;;;6.40;4.73;;;13.60;99.90;;;;;;5095321;28;20433;-64
2023/09/23 00:08:34;;;;;;;5.70;4.70;;;13.60;99.90;;;;;;5103283;28;20429;-63
2023/09/23 00:11:00;;;;;;;5.80;5.17;;;13.50;99.90;;;;;;5099494;28;20432;-64
2023/09/23 00:13:28;;;;;;;6.30;4.57;;;13.50;99.90;;;;;;5096006;28;20214;-64
2023/09/23 00:15:55;;;;;;;5.10;4.40;;;13.50;99.90;;;;;;5097020;28;20430;-64
2023/09/23 00:18:21;;;;;;;6.40;5.40;;;13.50;99.90;;;;;;5094868;28;20712;-63
2023/09/23 00:20:48;;;;;;;5.70;5.20;;;13.50;99.90;;;;;;5097960;28;20457;-64
2023/09/23 00:23:14;;;;;;;5.57;4.97;;;13.50;99.90;;;;;;5101305;28;20432;-64
2023/09/23 00:25:40;;;;;;;5.83;5.23;;;13.40;99.90;;;;;;5093820;28;20923;-64
2023/09/23 00:28:10;;;;;;;7.03;4.60;;;13.40;99.90;;;;;;5101074;28;20215;-63
2023/09/23 00:30:37;;;;;;;5.73;5.07;;;13.50;99.90;;;;;;5092867;28;20198;-64
2023/09/23 00:33:03;;;;;;;6.70;5.87;;;13.40;99.90;;;;;;5101838;28;20437;-64
2023/09/23 00:35:29;;;;;;;6.30;4.80;;;13.40;99.90;;;;;;5096764;28;20924;-64
2023/09/23 00:37:54;;;;;;;5.40;4.90;;;13.40;99.90;;;;;;5099901;28;20422;-64
2023/09/23 00:40:27;;;;;;;6.23;5.10;;;13.30;99.90;;;;;;5105513;28;20260;-65
2023/09/23 00:42:56;;;;;;;6.67;5.07;;;13.40;99.90;;;;;;5097454;28;20665;-64
2023/09/23 00:45:25;;;;;;;5.47;4.93;;;13.40;99.90;;;;;;5099944;28;20831;-64
2023/09/23 00:47:52;;;;;;;6.10;5.50;;;13.40;99.90;;;;;;5100968;28;20429;-64
2023/09/23 00:50:20;;;;;;;6.37;5.77;;;13.50;99.90;;;;;;5104960;28;20434;-64
2023/09/23 00:52:51;;;;;;;4.80;4.40;;;13.50;99.90;;;;;;5093840;28;20429;-64
2023/09/23 00:55:20;;;;;;;6.90;4.87;;;13.50;99.90;;;;;;5097001;28;20417;-63
2023/09/23 00:57:53;;;;;;;5.47;4.83;;;13.50;99.90;;;;;;5105622;28;20466;-64
2023/09/23 01:00:25;;;;;;;6.10;4.50;;;13.50;99.90;;;;;;5104962;28;20462;-64
2023/09/23 01:02:55;;;;;;;4.50;4.10;;;13.50;99.90;;;;;;5102867;28;21006;-65
2023/09/23 01:05:22;;;;;;;4.83;4.33;;;13.50;99.90;;;;;;5100270;28;20422;-64
2023/09/23 01:07:48;;;;;;;4.83;4.40;;;13.50;99.90;;;;;;5100338;28;20429;-64
2023/09/23 01:10:17;;;;;;;6.47;4.87;;;13.50;99.90;;;;;;5098234;27;20849;-64
2023/09/23 01:12:46;;;;;;;5.47;4.97;;;13.50;99.90;;;;;;5094141;28;20418;-64
2023/09/23 01:15:12;;;;;;;5.10;4.60;;;13.40;99.90;;;;;;5095815;28;20426;-64
2023/09/23 01:17:38;;;;;;;4.70;3.80;;;13.40;99.90;;;;;;5100308;28;20426;-64
2023/09/23 01:20:08;;;;;;;3.60;3.30;;;13.30;99.90;;;;;;5099190;28;21020;-64
2023/09/23 01:22:34;;;;;;;4.23;3.93;;;13.30;99.90;;;;;;5100545;28;20618;-64
2023/09/23 01:25:00;;;;;;;3.83;3.43;;;13.30;99.90;;;;;;5104990;28;20426;-64
2023/09/23 01:27:26;;;;;;;3.47;3.17;;;13.30;99.90;;;;;;5094398;28;20430;-64
2023/09/23 01:29:53;;;;;;;4.07;2.90;;;13.30;99.90;;;;;;5101574;28;20272;-64
2023/09/23 01:32:48;;;;;;;2.53;2.33;;;13.20;99.90;;;;;;5104286;28;20183;-64
2023/09/23 01:35:17;;;;;;;5.40;2.80;;;13.30;99.90;;;;;;5104584;28;20471;-64
2023/09/23 01:37:47;;;;;;;2.60;2.40;;;13.20;99.90;;;;;;5095092;28;20803;-64
2023/09/23 01:40:19;;;;;;;3.23;2.83;;;13.20;99.90;;;;;;5099058;28;20496;-63
2023/09/23 01:42:48;;;;;;;2.60;2.40;;;13.20;99.90;;;;;;5095804;28;20513;-63
2023/09/23 01:45:14;;;;;;;3.23;2.63;;;13.20;99.90;;;;;;5099350;28;20445;-64
2023/09/23 01:47:41;;;;;;;2.37;2.17;;;13.20;99.90;;;;;;5098806;28;20426;-64
2023/09/23 01:50:10;;;;;;;2.93;2.57;;;13.20;99.90;;;;;;5080830;28;20905;-64
2023/09/23 01:52:37;;;;;;;2.73;2.50;;;13.20;99.90;;;;;;5099714;28;20575;-64
2023/09/23 01:55:05;;;;;;;4.00;2.40;;;13.10;99.90;;;;;;5098726;28;20497;-64
2023/09/23 01:57:34;;;;;;;2.60;2.40;;;13.10;99.90;;;;;;5097003;28;20421;-64
2023/09/23 02:00:01;;;;;;;2.70;2.50;;;13.20;99.90;;;;;;5096655;28;20432;-64
2023/09/23 02:02:27;;;;;;;2.40;2.00;;;13.20;99.90;;;;;;5104772;28;20433;-64
2023/09/23 02:04:53;;;;;;;2.47;2.27;;;13.30;99.90;;;;;;5099700;28;20554;-64
2023/09/23 02:07:19;;;;;;;2.50;2.20;;;13.30;99.90;;;;;;5098381;28;20554;-64
2023/09/23 02:09:45;;;;;;;3.50;3.20;;;13.20;99.90;;;;;;5095684;28;20414;-64
2023/09/23 02:12:12;;;;;;;3.00;2.80;;;13.20;99.90;;;;;;5099979;28;20614;-64
2023/09/23 02:14:41;;;;;;;4.13;3.40;;;13.20;99.90;;;;;;5099533;28;20438;-64
2023/09/23 02:17:08;;;;;;;3.20;2.90;;;13.20;99.90;;;;;;5103607;28;20508;-64
2023/09/23 02:19:33;;;;;;;3.57;3.27;;;13.20;99.90;;;;;;5098085;28;20457;-64
2023/09/23 02:22:05;;;;;;;3.50;3.20;;;13.20;99.90;;;;;;5095782;28;20466;-64
2023/09/23 02:24:36;;;;;;;4.10;3.80;;;13.20;99.90;;;;;;5102132;28;20176;-64
2023/09/23 02:27:03;;;;;;;4.80;4.30;;;13.10;99.90;;;;;;5101732;28;20461;-64
2023/09/23 02:29:30;;;;;;;5.80;4.93;;;13.10;99.90;;;;;;5101256;28;20433;-64
2023/09/23 02:31:56;;;;;;;5.00;4.57;;;13.00;99.90;;;;;;5098500;28;20465;-64
2023/09/23 02:34:22;;;;;;;5.60;5.07;;;13.00;99.90;;;;;;5100806;28;20430;-64
2023/09/23 02:36:51;;;;;;;6.33;5.53;;;13.00;99.90;;;;;;5099010;28;20935;-64
2023/09/23 02:39:19;;;;;;;6.17;5.10;;;13.10;99.90;;;;;;5097362;28;20192;-64
2023/09/23 02:41:46;;;;;;;7.33;6.00;;;13.10;99.90;;;;;;5099730;28;20465;-63
2023/09/23 02:44:18;;;;;;;9.17;6.30;;;13.20;99.90;;;;;;5098399;28;20647;-64
2023/09/23 02:46:45;;;;;;;6.10;5.50;;;13.10;99.90;;;;;;5095320;28;20481;-64
2023/09/23 02:49:12;;;;;;;9.03;5.83;;;13.10;99.90;;;;;;5097013;28;20924;-64
2023/09/23 02:51:38;;;;;;;6.07;5.27;;;13.10;99.90;;;;;;5098039;28;20434;-64
2023/09/23 02:54:05;;;;;;;7.43;4.83;;;13.10;99.90;;;;;;5096002;28;20448;-64
2023/09/23 02:56:34;;;;;;;5.00;4.60;;;13.10;99.90;;;;;;5096712;28;20237;-64
2023/09/23 02:59:00;;;;;;;7.50;4.70;;;13.10;99.90;;;;;;5094525;28;20430;-63
2023/09/23 03:01:27;;;;;;;5.03;4.60;;;13.00;99.90;;;;;;5097736;28;20465;-64
2023/09/23 03:03:56;;;;;;;9.90;5.73;;;13.10;99.90;;;;;;5100264;28;20421;-63
2023/09/23 03:06:25;;;;;;;6.33;5.73;;;13.10;99.90;;;;;;5102080;28;20426;-64
2023/09/23 03:08:54;;;;;;;6.20;5.30;;;13.10;99.90;;;;;;5094677;28;20485;-64
2023/09/23 03:11:26;;;;;;;8.10;4.90;;;13.10;99.90;;;;;;5103044;28;20426;-63
2023/09/23 03:13:52;;;;;;;5.00;4.60;;;13.00;99.90;;;;;;5097918;28;20434;-64
2023/09/23 03:16:28;;;;;;;4.20;3.80;;;13.10;99.90;;;;;;5102829;28;20430;-64
2023/09/23 03:19:10;;;;;;;4.77;3.93;;;13.10;99.90;;;;;;5102840;28;20729;-64
2023/09/23 03:21:36;;;;;;;5.00;4.20;;;13.10;99.90;;;;;;5097676;28;20589;-64
2023/09/23 03:24:02;;;;;;;4.37;3.97;;;13.10;99.90;;;;;;5096653;28;20422;-64
2023/09/23 03:26:28;;;;;;;6.37;3.83;;;13.10;99.90;;;;;;5095671;28;20945;-64
2023/09/23 03:28:53;;;;;;;5.00;4.50;;;13.10;99.90;;;;;;5080993;28;20184;-64
2023/09/23 03:31:19;;;;;;;4.53;3.63;;;13.10;99.90;;;;;;5096794;28;20179;-63
2023/09/23 03:33:45;;;;;;;4.33;3.30;;;13.10;99.90;;;;;;5094921;28;20176;-64
2023/09/23 03:36:15;;;;;;;5.80;3.37;;;13.20;99.90;;;;;;5090638;28;20405;-64
2023/09/23 03:38:42;;;;;;;5.77;3.87;;;13.10;99.90;;;;;;5089877;28;20275;-63
2023/09/23 03:41:08;;;;;;;6.83;4.80;;;13.10;99.90;;;;;;5083540;28;20477;-63
2023/09/23 03:43:34;;;;;;;4.40;3.97;;;13.00;99.90;;;;;;5099802;28;20423;-63
2023/09/23 03:45:59;;;;;;;5.80;4.23;;;13.00;99.90;;;;;;5083378;28;20780;-64
2023/09/23 03:48:25;;;;;;;6.67;4.47;;;13.00;99.90;;;;;;5099749;28;20176;-63
2023/09/23 03:50:54;;;;;;;5.90;3.67;;;13.00;99.90;;;;;;5097088;28;20195;-64
2023/09/23 03:53:24;;;;;;;5.83;3.50;;;13.00;99.90;;;;;;5097585;28;20191;-63
2023/09/23 03:55:52;;;;;;;4.80;3.50;;;13.00;99.90;;;;;;5097443;28;20434;-63
2023/09/23 03:58:17;;;;;;;4.30;3.07;;;13.10;99.90;;;;;;5097204;28;20432;-63
2023/09/23 04:00:44;;;;;;;5.20;3.33;;;13.10;99.90;;;;;;5084203;28;20469;-63
2023/09/23 04:03:13;;;;;;;4.83;3.77;;;13.00;99.90;;;;;;5101696;28;20248;-63
2023/09/23 04:05:39;;;;;;;6.20;3.97;;;13.10;99.90;;;;;;5099148;28;20421;-64
2023/09/23 04:08:05;;;;;;;3.23;2.90;;;13.10;99.90;;;;;;5096451;28;21045;-64
2023/09/23 04:10:35;;;;;;;4.33;3.37;;;13.20;99.90;;;;;;5100471;28;20186;-63
2023/09/23 04:13:01;;;;;;;3.93;2.57;;;13.10;99.90;;;;;;5098479;28;20445;-63
2023/09/23 04:15:27;;;;;;;4.30;3.43;;;13.10;99.90;;;;;;5105215;28;20418;-63
2023/09/23 04:17:52;;;;;;;4.07;3.20;;;13.10;99.90;;;;;;5105634;28;20187;-63
2023/09/23 04:20:18;;;;;;;6.20;3.53;;;13.10;99.90;;;;;;5103499;28;20817;-63
2023/09/23 04:22:48;;;;;;;3.10;2.70;;;13.10;99.90;;;;;;5101341;28;20203;-63
2023/09/23 04:25:14;;;;;;;4.17;2.70;;;13.10;99.90;;;;;;5086835;28;20286;-63
2023/09/23 04:27:40;;;;;;;3.50;3.20;;;13.10;99.90;;;;;;5100683;28;20534;-63
2023/09/23 04:30:11;;;;;;;4.33;2.93;;;13.10;99.90;;;;;;5105589;28;20179;-63
2023/09/23 04:32:41;;;;;;;3.50;3.20;;;13.10;99.90;;;;;;5097464;28;20434;-64
2023/09/23 04:35:07;;;;;;;3.33;2.23;;;13.10;99.90;;;;;;5098752;28;20892;-64
2023/09/23 04:37:37;;;;;;;2.80;2.03;;;13.20;99.90;;;;;;5098283;28;20757;-63
2023/09/23 04:40:10;;;;;;;3.07;2.20;;;13.20;99.90;;;;;;5097949;28;20457;-64
2023/09/23 04:42:42;;;;;;;3.50;2.60;;;13.30;99.90;;;;;;5106047;28;20503;-64
2023/09/23 04:45:10;;;;;;;2.60;2.40;;;13.30;99.90;;;;;;5097732;28;20844;-63
2023/09/23 04:47:36;;;;;;;3.37;2.50;;;13.20;99.90;;;;;;5100022;28;20417;-64
2023/09/23 04:50:05;;;;;;;3.87;2.37;;;13.20;99.90;;;;;;5101856;28;20544;-64
2023/09/23 04:52:35;;;;;;;4.03;2.73;;;13.20;99.90;;;;;;5106969;27;20469;-63
2023/09/23 04:55:02;;;;;;;5.30;2.50;;;13.30;99.90;;;;;;5105164;28;20478;-63
2023/09/23 04:57:28;;;;;;;3.07;2.17;;;13.30;99.90;;;;;;5100304;28;20440;-64
2023/09/23 04:59:54;;;;;;;3.13;2.20;;;13.30;99.90;;;;;;5099846;28;20960;-63
2023/09/23 05:02:20;;;;;;;2.90;2.10;;;13.30;99.90;;;;;;5104806;28;20176;-64
2023/09/23 05:04:46;;;;;;;2.63;2.40;;;13.30;99.90;;;;;;5101397;28;20483;-63
2023/09/23 05:07:15;;;;;;;5.27;3.17;;;13.30;99.90;;;;;;5099974;28;20800;-63
2023/09/23 05:09:41;;;;;;;4.97;2.50;;;13.30;99.90;;;;;;5094986;28;20258;-60
2023/09/23 05:12:10;;;;;;;6.97;2.87;;;13.30;99.90;;;;;;5099617;28;20422;-64
2023/09/23 05:14:36;;;;;;;5.57;2.43;;;13.30;99.90;;;;;;5102878;28;20449;-64
2023/09/23 05:17:05;;;;;;;3.00;2.80;;;13.30;99.90;;;;;;5102429;28;20727;-63
2023/09/23 05:19:34;;;;;;;5.73;2.70;;;13.30;99.90;;;;;;5101001;28;20274;-63
2023/09/23 05:22:00;;;;;;;3.73;2.60;;;13.40;99.90;;;;;;5090269;28;20519;-63
2023/09/23 05:24:27;;;;;;;2.83;2.30;;;13.40;99.90;;;;;;5092663;28;20426;-63
2023/09/23 05:26:56;;;;;;;3.20;2.90;;;13.40;99.90;;;;;;5099154;28;20434;-64
2023/09/23 05:29:22;;;;;;;3.67;3.37;;;13.40;99.90;;;;;;5096257;28;20976;-63
2023/09/23 05:31:48;;;;;;;3.87;3.47;;;13.40;99.90;;;;;;5100983;27;20434;-64
2023/09/23 05:34:15;;;;;;;3.70;2.87;;;13.40;99.90;;;;;;5083673;28;20924;-64
2023/09/23 05:36:41;;;;;;;3.00;2.70;;;13.50;99.90;;;;;;5094061;28;20417;-63
2023/09/23 05:39:07;;;;;;;4.00;3.10;;;13.40;99.90;;;;;;5095006;28;20521;-64
2023/09/23 05:41:33;;;;;;;2.80;2.50;;;13.40;99.90;;;;;;5094424;28;20481;-63
2023/09/23 05:43:59;;;;;;;6.40;3.10;;;13.50;99.90;;;;;;5098184;28;20179;-63
2023/09/23 05:46:27;;;;;;;4.70;3.23;;;13.60;99.90;;;;;;5102281;28;20695;-64
2023/09/23 05:48:53;;;;;;;7.27;3.50;;;13.50;99.90;;;;;;5098505;28;20437;-63
2023/09/23 05:51:19;;;;;;;5.60;3.50;;;13.40;99.90;;;;;;5100474;28;20445;-63
2023/09/23 05:53:45;;;;;;;3.00;2.80;;;13.40;99.90;;;;;;5093842;28;20471;-63
2023/09/23 05:56:11;;;;;;;4.00;2.73;;;13.40;99.90;;;;;;5086234;28;20191;-63
2023/09/23 05:58:37;;;;;;;5.00;3.40;;;13.40;99.90;;;;;;5099244;28;20417;-64
2023/09/23 06:01:02;;;;;;;4.33;3.30;;;13.40;99.90;;;;;;5099233;28;20658;-63
2023/09/23 06:03:28;;;;;;;4.73;3.47;;;13.50;99.90;;;;;;5102808;28;20880;-63
2023/09/23 06:05:55;;;;;;;4.53;3.53;;;13.50;99.90;;;;;;5095172;28;20184;-64
2023/09/23 06:08:21;;;;;;;6.90;3.43;;;13.50;99.90;;;;;;5086364;28;20218;-64
2023/09/23 06:10:47;;;;;;;3.03;2.73;;;13.50;99.90;;;;;;5093753;28;20506;-63
2023/09/23 06:13:13;;;;;;;3.67;3.27;;;13.60;99.90;;;;;;5085509;28;20633;-64
2023/09/23 06:15:39;;;;;;;4.47;3.13;;;13.50;99.90;;;;;;5097445;28;20428;-63
2023/09/23 06:18:06;;;;;;;3.93;3.30;;;13.60;99.90;;;;;;5098903;28;20540;-63
2023/09/23 06:20:33;;;;;;;5.17;3.10;;;13.60;99.90;;;;;;5098420;28;20211;-63
2023/09/23 06:22:59;;;;;;;4.33;3.93;;;13.60;99.90;;;;;;5100615;28;20449;-63
2023/09/23 06:25:25;;;;;;;4.23;3.47;;;13.60;99.90;;;;;;5104676;27;20582;-63
2023/09/23 06:27:50;;;;;;;4.33;3.53;;;13.60;99.90;;;;;;5103398;27;20494;-63
2023/09/23 06:30:17;;;;;;;5.13;3.20;;;13.50;99.90;;;;;;5096988;28;20256;-63
2023/09/23 06:32:43;;;;;;;6.43;3.13;;;13.50;99.90;;;;;;5097767;28;20188;-64
2023/09/23 06:35:14;;;;;;;6.20;2.80;;;13.50;99.90;;;;;;5098105;28;20953;-63
2023/09/23 06:37:40;;;;;;;3.97;3.23;;;13.50;99.90;;;;;;5097986;28;20429;-64
2023/09/23 06:40:06;;;;;;;4.70;3.47;;;13.60;99.90;;;;;;5100268;28;20425;-64
2023/09/23 06:42:32;;;;;;;4.57;2.90;;;13.50;99.90;;;;;;5098486;28;20217;-63
2023/09/23 06:44:58;;;;;;;4.93;3.30;;;13.60;99.90;;;;;;5097409;28;20920;-63
2023/09/23 06:47:24;;;;;;;4.20;3.13;;;13.50;99.90;;;;;;5098413;28;20650;-64
2023/09/23 06:49:50;;;;;;;3.97;3.20;;;13.50;99.90;;;;;;5094975;28;20450;-64
2023/09/23 06:52:16;;;;;;;4.73;3.07;;;13.50;99.90;;;;;;5100277;28;20433;-64
2023/09/23 06:54:42;;;;;;;5.20;3.17;;;13.60;99.90;;;;;;5097515;28;20437;-63
2023/09/23 06:57:08;;;;;;;4.47;2.93;;;13.60;99.90;;;;;;5097892;28;20653;-64
2023/09/23 06:59:34;;;;;;;3.33;2.80;;;13.60;99.90;;;;;;5098257;28;20883;-64
2023/09/23 07:01:59;;;;;;;4.63;3.07;;;13.70;99.90;;;;;;5100604;28;20211;-63
2023/09/23 07:04:25;;;;;;;3.70;3.20;;;13.70;99.90;;;;;;5089474;27;20433;-64
2023/09/23 07:06:51;;;;;;;3.77;2.97;;;13.80;99.90;;;;;;5110916;27;20187;-63
2023/09/23 07:09:17;;;;;;;5.43;3.10;;;13.90;99.90;;;;;;5110370;27;20429;-63
2023/09/23 07:11:42;;;;;;;4.10;2.90;;;13.90;99.90;;;;;;5096766;28;20195;-64
2023/09/23 07:14:08;;;;;;;4.23;3.60;;;13.90;99.90;;;;;;5096337;27;20454;-63
2023/09/23 07:16:34;;;;;;;4.13;2.90;;;13.80;99.90;;;;;;5103327;28;20184;-64
2023/09/23 07:19:03;;;;;;;3.00;2.63;;;13.80;99.90;;;;;;5096937;28;20195;-64
2023/09/23 07:21:29;;;;;;;7.37;2.80;;;13.80;99.90;;;;;;5097301;28;20660;-63
2023/09/23 07:23:56;;;;;;;3.87;2.97;;;13.90;99.90;;;;;;5096983;28;20510;-63
2023/09/23 07:26:22;;;;;;;4.50;2.70;;;13.90;99.90;;;;;;5097559;28;20418;-63
2023/09/23 07:28:50;;;;;;;4.90;3.30;;;14.00;99.90;;;;;;5094729;28;20438;-64
2023/09/23 07:31:17;;;;;;;4.10;3.80;;;13.90;99.90;;;;;;5097438;28;20427;-64
2023/09/23 07:33:42;;;;;;;3.50;3.00;;;13.90;99.90;;;;;;5102272;28;20418;-64
2023/09/23 07:36:12;;;;;;;4.00;3.70;;;13.80;99.90;;;;;;5103401;28;20954;-63
2023/09/23 07:38:38;;;;;;;3.47;3.17;;;13.70;99.90;;;;;;5093889;27;20743;-62
2023/09/23 07:41:04;;;;;;;3.20;2.90;;;13.80;99.90;;;;;;5109023;27;20464;-64
2023/09/23 07:43:30;;;;;;;5.30;3.43;;;13.80;99.90;;;;;;5102191;28;20550;-64
2023/09/23 07:45:56;;;;;;;4.20;3.80;;;13.90;99.90;;;;;;5096258;28;20426;-63
2023/09/23 07:48:21;;;;;;;7.03;3.83;;;13.90;99.90;;;;;;5102091;27;20188;-64
2023/09/23 07:50:47;;;;;;;3.60;3.30;;;13.90;99.90;;;;;;5097238;28;20207;-64
2023/09/23 07:53:13;;;;;;;3.23;2.90;;;13.90;99.90;;;;;;5082247;28;20199;-64
2023/09/23 07:55:38;;;;;;;6.60;3.30;;;13.90;99.90;;;;;;5084181;28;20187;-63
2023/09/23 07:58:05;;;;;;;5.13;3.70;;;14.00;99.90;;;;;;5095608;28;20192;-63
2023/09/23 08:00:30;;;;;;;4.40;4.00;;;14.10;99.90;;;;;;5101143;28;20207;-63
2023/09/23 08:02:56;;;;;;;6.30;3.73;;;14.10;99.90;;;;;;5099161;28;20421;-63
2023/09/23 08:05:23;;;;;;;5.13;3.37;;;14.20;99.90;;;;;;5097685;28;20254;-63
2023/09/23 08:07:51;;;;;;;4.30;3.20;;;14.20;99.90;;;;;;5093393;28;20611;-63
2023/09/23 08:10:17;;;;;;;6.40;3.60;;;14.30;99.90;;;;;;5095495;28;20433;-64
2023/09/23 08:12:43;;;;;;;4.10;3.60;;;14.30;99.90;;;;;;5091933;28;20442;-63
2023/09/23 08:15:11;;;;;;;4.87;3.83;;;14.30;99.90;;;;;;5078683;28;20430;-63
2023/09/23 08:17:40;;;;;;;7.27;3.80;;;14.40;99.90;;;;;;5098586;28;20442;-64
2023/09/23 08:20:17;;;;;;;5.20;3.70;;;14.40;99.90;;;;;;5093472;28;20448;-64
2023/09/23 08:22:46;;;;;;;4.80;3.30;;;14.50;99.90;;;;;;5099048;28;20536;-63
2023/09/23 08:25:13;;;;;;;5.33;4.40;;;14.50;99.90;;;;;;5096835;28;20529;-64
2023/09/23 08:27:40;;;;;;;5.90;4.10;;;14.50;99.90;;;;;;5096207;28;20525;-63
2023/09/23 08:30:07;;;;;;;4.10;3.70;;;14.60;99.90;;;;;;5098098;28;20516;-63
2023/09/23 08:32:33;;;;;;;5.37;4.20;;;14.60;99.90;;;;;;5099382;28;20418;-63
2023/09/23 08:34:59;;;;;;;3.97;3.57;;;14.60;99.90;;;;;;5096941;28;20514;-63
2023/09/23 08:37:24;;;;;;;4.97;3.80;;;14.70;99.90;;;;;;5098105;28;20282;-64
2023/09/23 08:39:50;;;;;;;4.57;4.17;;;14.70;99.90;;;;;;5097274;28;20457;-63
2023/09/23 08:42:19;;;;;;;6.57;4.00;;;14.80;99.90;;;;;;5096465;28;20321;-63
2023/09/23 08:44:48;;;;;;;6.73;4.50;;;15.00;99.90;;;;;;5097245;28;20449;-63
2023/09/23 08:47:14;;;;;;;4.63;4.30;;;15.00;99.90;;;;;;5102028;28;20451;-62
2023/09/23 08:49:39;;;;;;;6.30;4.40;;;15.00;99.90;;;;;;5093358;28;20434;-63
2023/09/23 08:52:06;;;;;;;4.17;3.80;;;15.00;99.90;;;;;;5096785;28;20460;-64
2023/09/23 08:54:34;;;;;;;6.90;4.90;;;14.90;99.90;;;;;;5095679;28;20179;-63
2023/09/23 08:56:59;;;;;;;5.03;4.20;;;14.90;99.90;;;;;;5091401;28;20472;-63
2023/09/23 08:59:28;;;;;;;6.53;4.37;;;15.00;99.90;;;;;;5105673;28;20918;-64
2023/09/23 09:01:55;;;;;;;5.33;4.83;;;15.10;99.90;;;;;;5100132;28;20214;-63
2023/09/23 09:04:21;;;;;;;5.07;4.50;;;15.10;99.90;;;;;;5105117;28;20452;-63
2023/09/23 09:06:51;;;;;;;9.77;3.87;;;15.10;99.90;;;;;;5095260;28;21103;-63
2023/09/23 09:09:17;;;;;;;6.23;4.10;;;15.20;99.90;;;;;;5096925;28;20441;-63
2023/09/23 09:11:47;;;;;;;5.33;4.57;;;15.30;99.90;;;;;;5099684;28;20881;-63
2023/09/23 09:14:15;;;;;;;5.57;4.40;;;15.40;99.90;;;;;;5105570;28;20544;-63
2023/09/23 09:16:40;;;;;;;3.50;3.17;;;15.50;99.90;;;;;;5099121;28;20451;-63
2023/09/23 09:19:06;;;;;;;4.60;4.07;;;15.50;99.90;;;;;;5102982;28;20429;-64
2023/09/23 09:21:32;;;;;;;4.30;3.50;;;15.70;99.90;;;;;;5098844;28;20294;-63
2023/09/23 09:24:01;;;;;;;3.70;3.33;;;15.70;99.90;;;;;;5099843;28;20195;-63
2023/09/23 09:26:26;;;;;;;5.77;3.20;;;15.80;99.90;;;;;;5104893;28;20533;-63
2023/09/23 09:28:52;;;;;;;3.30;2.80;;;15.90;99.90;;;;;;5101806;28;20426;-64
2023/09/23 09:31:18;;;;;;;3.37;3.00;;;16.00;99.90;;;;;;5104804;28;20192;-64
2023/09/23 09:33:47;;;;;;;4.77;3.17;;;16.00;99.90;;;;;;5098828;27;20192;-63
2023/09/23 09:36:19;;;;;;;3.97;3.17;;;16.10;99.90;;;;;;5099090;28;20847;-63
2023/09/23 09:38:49;;;;;;;5.80;3.00;;;16.20;99.90;;;;;;5098694;28;20433;-63
2023/09/23 09:41:29;;;;;;;4.30;3.20;;;16.30;99.90;;;;;;5099210;28;21038;-64
2023/09/23 09:43:56;;;;;;;5.73;3.20;;;16.40;99.90;;;;;;5094784;28;20439;-63
2023/09/23 09:46:24;;;;;;;5.50;2.90;;;16.50;99.90;;;;;;5087009;28;20790;-64
2023/09/23 09:48:50;;;;;;;2.87;2.57;;;16.70;99.90;;;;;;5100167;28;20913;-63
2023/09/23 09:51:19;;;;;;;3.17;2.60;;;16.80;99.90;;;;;;5098294;28;20483;-63
2023/09/23 09:53:45;;;;;;;3.83;2.73;;;17.10;99.90;;;;;;5099094;28;20422;-63
2023/09/23 09:56:13;;;;;;;2.50;2.30;;;17.30;99.90;;;;;;5093375;28;20442;-63
2023/09/23 09:58:41;;;;;;;3.27;2.50;;;17.20;99.90;;;;;;5098420;28;20413;-63
2023/09/23 10:01:13;;;;;;;3.10;2.60;;;17.20;99.90;;;;;;5106793;27;20468;-63
2023/09/23 10:03:51;;;;;;;5.20;2.63;;;16.90;99.90;;;;;;5104554;28;21002;-63
2023/09/23 10:06:26;;;;;;;4.00;2.13;;;16.90;99.90;;;;;;5096426;28;20564;-63
2023/09/23 10:08:53;;;;;;;2.57;1.97;;;16.90;99.90;;;;;;5098701;28;20491;-63
2023/09/23 10:11:34;;;;;;;2.50;2.10;;;16.90;99.90;;;;;;5093095;28;20524;-63
2023/09/23 10:14:17;;;;;;;3.23;1.60;;;16.80;99.90;;;;;;5105293;28;20437;-64
2023/09/23 10:16:59;;;;;;;2.90;2.30;;;16.70;99.90;;;;;;5098436;28;20437;-64
2023/09/23 10:19:32;;;;;;;2.50;1.70;;;16.60;99.90;;;;;;5095802;28;20417;-63
2023/09/23 10:22:18;;;;;;;3.23;1.83;;;16.60;99.90;;;;;;5099716;28;20486;-64
2023/09/23 10:24:44;;;;;;;1.67;1.50;;;16.50;99.90;;;;;;5096190;27;20435;-63
2023/09/23 10:27:10;;;;;;;5.50;2.03;;;16.50;99.90;;;;;;5102967;28;20422;-63
2023/09/23 10:29:47;;;;;;;3.50;1.80;;;16.60;99.90;;;;;;5103025;28;20940;-63
2023/09/23 10:32:14;;;;;;;6.00;1.90;;;16.80;99.90;;;;;;5104560;28;21274;-63
2023/09/23 10:34:52;;;;;;;3.67;1.90;;;17.00;99.90;;;;;;5098155;28;20421;-63
2023/09/23 10:37:44;;;;;;;4.97;1.80;;;17.40;99.90;;;;;;5098255;28;20421;-63
2023/09/23 10:40:13;;;;;;;1.60;1.43;;;17.50;99.90;;;;;;5091751;28;20523;-63
2023/09/23 10:42:46;;;;;;;2.70;1.70;;;17.60;99.90;;;;;;5097676;28;20932;-63
2023/09/23 10:45:16;;;;;;;2.50;1.60;;;17.60;99.90;;;;;;5092494;28;20466;-63
2023/09/23 10:47:44;;;;;;;3.50;1.80;;;17.50;99.90;;;;;;5079408;28;20437;-63
2023/09/23 10:50:09;;;;;;;1.97;1.60;;;17.50;99.90;;;;;;5104044;28;20452;-63
2023/09/23 10:52:36;;;;;;;1.90;1.63;;;17.50;99.90;;;;;;5098059;28;20785;-63
2023/09/23 10:55:02;;;;;;;1.83;1.53;;;17.40;99.90;;;;;;5097543;28;20432;-63
2023/09/23 10:57:28;;;;;;;5.50;2.50;;;17.30;99.90;;;;;;5092381;27;20460;-63
2023/09/23 10:59:56;;;;;;;3.93;1.80;;;17.40;99.90;;;;;;5100141;28;20576;-63
2023/09/23 11:02:25;;;;;;;3.30;1.90;;;17.40;99.90;;;;;;5084544;28;20821;-63
2023/09/23 11:04:53;;;;;;;2.23;1.60;;;17.30;99.90;;;;;;5076215;28;20471;-64
2023/09/23 11:07:20;;;;;;;2.30;1.50;;;17.20;99.90;;;;;;5090277;28;21015;-63
2023/09/23 11:09:46;;;;;;;2.63;1.80;;;17.20;99.90;;;;;;5090437;27;20430;-63
2023/09/23 11:12:13;;;;;;;2.97;1.57;;;17.30;99.90;;;;;;5101304;28;20438;-63
2023/09/23 11:14:46;;;;;;;3.47;1.87;;;17.30;99.90;;;;;;5096911;28;20425;-64
2023/09/23 11:17:29;;;;;;;1.70;1.60;;;17.40;99.90;;;;;;5098097;28;20426;-64
2023/09/23 11:19:59;;;;;;;2.10;1.73;;;17.50;99.90;;;;;;5076078;28;20427;-63
2023/09/23 11:22:34;;;;;;;5.67;1.30;;;17.40;99.90;;;;;;5094474;28;21117;-64
2023/09/23 11:24:59;;;;;;;3.60;1.70;;;17.30;99.90;;;;;;5103534;28;20456;-63
2023/09/23 11:27:26;;;;;;;6.27;2.03;;;17.30;99.90;;;;;;5095542;28;20466;-64
2023/09/23 11:29:52;;;;;;;3.47;1.67;;;17.30;99.90;;;;;;5096470;27;20187;-63
2023/09/23 11:32:25;;;;;;;1.60;1.50;;;17.40;99.90;;;;;;5091734;28;20421;-63
2023/09/23 11:34:52;;;;;;;2.50;1.30;;;17.40;99.90;;;;;;5091761;28;20422;-64
2023/09/23 11:37:20;;;;;;;1.83;1.50;;;17.40;99.90;;;;;;5067152;28;20425;-63
2023/09/23 11:39:47;;;;;;;2.03;1.60;;;17.40;99.90;;;;;;5092700;28;20438;-63
2023/09/23 11:42:12;;;;;;;3.13;1.70;;;17.50;99.90;;;;;;5100841;28;20465;-64
2023/09/23 11:44:38;;;;;;;3.03;1.50;;;17.40;99.90;;;;;;5096591;28;20953;-64
2023/09/23 11:47:04;;;;;;;1.77;1.50;;;17.60;99.90;;;;;;5100622;28;20341;-64
2023/09/23 11:49:30;;;;;;;2.50;2.30;;;17.70;99.90;;;;;;5096127;28;20183;-64
2023/09/23 11:51:56;;;;;;;4.90;2.37;;;17.70;99.90;;;;;;5097737;28;20486;-63
2023/09/23 11:54:22;;;;;;;2.00;1.53;;;17.80;99.90;;;;;;5096409;28;20180;-63
2023/09/23 11:56:47;;;;;;;1.40;1.30;;;18.00;99.90;;;;;;5098284;28;20940;-64
2023/09/23 11:59:14;;;;;;;8.53;2.00;;;18.10;99.90;;;;;;5095856;28;20180;-63
2023/09/23 12:01:41;;;;;;;3.07;1.63;;;18.10;99.90;;;;;;5093870;28;20542;-64
2023/09/23 12:04:07;;;;;;;1.60;1.43;;;18.10;99.90;;;;;;5093909;28;20468;-63
2023/09/23 12:06:35;;;;;;;1.67;1.23;;;18.00;99.90;;;;;;5093433;28;20434;-63
2023/09/23 12:09:07;;;;;;;1.80;1.30;;;17.80;99.90;;;;;;5096438;28;20496;-63
2023/09/23 12:11:32;;;;;;;1.97;1.43;;;17.70;99.90;;;;;;5101353;28;20426;-63
2023/09/23 12:13:58;;;;;;;1.80;1.50;;;17.70;99.90;;;;;;5096215;28;20445;-63
2023/09/23 12:16:23;;;;;;;2.80;1.57;;;17.70;99.90;;;;;;5081020;28;20176;-63
2023/09/23 12:18:49;;;;;;;2.00;1.27;;;17.90;99.90;;;;;;5088479;28;20219;-63
2023/09/23 12:21:15;;;;;;;3.37;1.40;;;18.00;99.90;;;;;;5095007;28;20224;-61
2023/09/23 12:23:41;;;;;;;1.40;1.10;;;18.00;99.90;;;;;;5102502;28;20180;-63
2023/09/23 12:26:09;;;;;;;1.43;1.23;;;18.00;99.90;;;;;;5102533;28;20179;-63
2023/09/23 12:28:36;;;;;;;1.80;1.50;;;17.90;99.90;;;;;;5092603;28;20427;-63
2023/09/23 12:31:02;;;;;;;3.43;1.57;;;17.80;99.90;;;;;;5071906;28;20426;-64
2023/09/23 12:33:28;;;;;;;3.47;1.33;;;17.70;99.90;;;;;;5094490;28;20483;-63
2023/09/23 12:35:54;;;;;;;4.30;1.57;;;17.60;99.90;;;;;;5096670;28;20480;-63
2023/09/23 12:38:19;;;;;;;4.03;1.17;;;17.70;99.90;;;;;;5104967;28;20686;-64
2023/09/23 12:40:46;;;;;;;4.00;1.53;;;17.80;99.90;;;;;;5104640;28;20260;-64
2023/09/23 12:43:11;;;;;;;2.10;1.00;;;17.90;99.90;;;;;;5101749;28;20459;-63
2023/09/23 12:45:40;;;;;;;2.63;1.40;;;18.00;99.90;;;;;;5100693;28;20432;-64
2023/09/23 12:48:09;;;;;;;2.17;1.33;;;18.20;99.90;;;;;;5097974;27;20307;-63
2023/09/23 12:50:35;;;;;;;6.53;1.50;;;18.20;99.90;;;;;;5091968;28;20587;-63